Time;durP1;ratioP1;P1;durP2;ratioP2;P2;SDS_P1;SDS_P2;PMS_P1;PMS_P2;Temp;Humidity;BMP_temperature;BMP_pressure;BME280_temperature;BME280_humidity;BME280_pressure;Samples;Min_cycle;Max_cycle;Signal;HPM_P1;HPM_P2
2023/07/04 00:01:06;;;;;;;2.53;2.00;;;24.90;48.40;;;;;;4994580;28;20443;-67
2023/07/04 00:03:32;;;;;;;3.67;1.97;;;25.00;48.40;;;;;;4994593;28;20428;-66
2023/07/04 00:05:58;;;;;;;2.30;1.50;;;24.90;48.40;;;;;;4994717;28;20464;-66
2023/07/04 00:08:26;;;;;;;2.03;1.30;;;25.00;48.50;;;;;;4994436;28;20464;-67
2023/07/04 00:11:02;;;;;;;1.67;1.43;;;24.90;48.40;;;;;;4994486;28;20423;-67
2023/07/04 00:13:28;;;;;;;2.63;1.83;;;25.00;48.50;;;;;;4994452;28;20405;-68
2023/07/04 00:15:55;;;;;;;1.43;1.33;;;24.90;48.40;;;;;;4994419;28;20486;-67
2023/07/04 00:18:21;;;;;;;3.47;2.33;;;25.00;48.50;;;;;;4994478;28;20443;-67
2023/07/04 00:20:53;;;;;;;2.73;1.80;;;25.00;48.50;;;;;;4994341;28;20499;-66
2023/07/04 00:23:20;;;;;;;3.00;1.87;;;25.00;48.60;;;;;;4994246;28;20396;-68
2023/07/04 00:25:46;;;;;;;4.83;1.70;;;25.00;48.60;;;;;;4994125;28;20495;-68
2023/07/04 00:28:13;;;;;;;2.73;1.67;;;25.00;48.60;;;;;;4992735;28;20468;-67
2023/07/04 00:30:39;;;;;;;2.00;1.70;;;25.00;48.60;;;;;;4994076;28;20955;-67
2023/07/04 00:33:05;;;;;;;2.20;1.80;;;25.00;48.70;;;;;;4994017;28;20507;-68
2023/07/04 00:35:30;;;;;;;2.40;1.80;;;25.00;48.70;;;;;;4994230;28;20272;-67
2023/07/04 00:37:56;;;;;;;2.43;1.57;;;25.00;48.80;;;;;;4993824;28;20283;-68
2023/07/04 00:40:23;;;;;;;2.87;2.17;;;25.00;48.80;;;;;;4993864;28;20173;-66
2023/07/04 00:42:52;;;;;;;2.27;1.73;;;24.90;48.80;;;;;;4994096;28;20189;-65
2023/07/04 00:45:21;;;;;;;2.47;1.87;;;24.90;48.90;;;;;;4992711;28;20495;-65
2023/07/04 00:48:00;;;;;;;4.13;1.97;;;24.90;48.90;;;;;;4993691;28;20444;-67
2023/07/04 00:50:49;;;;;;;2.87;1.90;;;24.90;49.00;;;;;;4993777;28;20446;-65
2023/07/04 00:53:15;;;;;;;2.90;2.10;;;24.90;49.00;;;;;;4993714;28;20389;-67
2023/07/04 00:55:47;;;;;;;3.13;2.07;;;24.90;49.20;;;;;;4993617;28;20404;-66
2023/07/04 00:58:15;;;;;;;2.80;2.00;;;24.90;49.20;;;;;;4993563;28;20424;-66
2023/07/04 01:00:41;;;;;;;2.20;1.77;;;24.90;49.20;;;;;;4993375;28;20432;-66
2023/07/04 01:03:13;;;;;;;1.83;1.73;;;24.90;49.30;;;;;;4993532;28;20404;-67
2023/07/04 01:06:00;;;;;;;2.03;1.63;;;24.90;49.30;;;;;;4993325;28;20192;-67
2023/07/04 01:08:43;;;;;;;2.03;1.80;;;24.90;49.40;;;;;;4993330;28;20428;-67
2023/07/04 01:11:19;;;;;;;4.20;1.67;;;24.90;49.40;;;;;;4993533;28;20407;-66
2023/07/04 01:13:45;;;;;;;2.17;1.90;;;24.90;49.40;;;;;;4993342;28;20392;-67
2023/07/04 01:16:17;;;;;;;2.20;1.70;;;24.90;49.50;;;;;;4993126;28;20416;-67
2023/07/04 01:18:46;;;;;;;5.03;2.07;;;24.80;49.40;;;;;;4993222;28;20961;-67
2023/07/04 01:21:13;;;;;;;2.47;1.90;;;24.90;49.50;;;;;;4993675;28;20417;-66
2023/07/04 01:23:54;;;;;;;2.63;2.03;;;24.80;49.40;;;;;;4993105;28;20420;-67
2023/07/04 01:26:31;;;;;;;2.50;2.00;;;24.90;49.50;;;;;;4992918;28;20460;-67
2023/07/04 01:28:57;;;;;;;3.07;1.93;;;24.80;49.50;;;;;;4993347;28;20825;-66
2023/07/04 01:31:25;;;;;;;2.00;1.80;;;24.80;49.50;;;;;;4992831;28;20451;-67
2023/07/04 01:33:52;;;;;;;2.50;1.77;;;24.80;49.50;;;;;;4992956;28;20499;-67
2023/07/04 01:36:22;;;;;;;2.77;1.90;;;24.80;49.50;;;;;;4992888;28;20495;-66
2023/07/04 01:38:48;;;;;;;2.97;2.10;;;24.80;49.50;;;;;;4992924;28;20457;-67
2023/07/04 01:41:15;;;;;;;2.20;2.00;;;24.80;49.50;;;;;;4992928;28;20447;-67
2023/07/04 01:43:41;;;;;;;3.33;1.90;;;24.80;49.40;;;;;;4992785;28;20940;-66
2023/07/04 01:46:07;;;;;;;2.27;1.67;;;24.80;50.00;;;;;;4992659;28;20546;-65
2023/07/04 01:48:33;;;;;;;3.43;2.17;;;24.80;49.40;;;;;;4993020;28;20507;-67
2023/07/04 01:50:58;;;;;;;4.30;2.40;;;24.80;49.40;;;;;;4992733;28;20180;-65
2023/07/04 01:53:24;;;;;;;2.70;1.90;;;24.80;49.30;;;;;;4992785;28;20173;-66
2023/07/04 01:55:49;;;;;;;3.00;2.00;;;24.80;49.30;;;;;;4992615;28;20172;-66
2023/07/04 01:58:15;;;;;;;4.13;2.17;;;24.80;49.40;;;;;;4992614;28;20284;-66
2023/07/04 02:00:41;;;;;;;1.70;1.53;;;24.80;49.30;;;;;;4992652;28;20184;-66
2023/07/04 02:03:07;;;;;;;1.80;1.40;;;24.90;49.40;;;;;;4992775;28;20164;-66
2023/07/04 02:05:32;;;;;;;2.60;1.80;;;24.90;49.40;;;;;;4992826;28;20440;-67
2023/07/04 02:07:58;;;;;;;2.33;1.93;;;24.80;49.40;;;;;;4992550;28;20339;-67
2023/07/04 02:10:24;;;;;;;2.40;1.93;;;24.90;49.40;;;;;;4992769;28;20184;-66
2023/07/04 02:12:50;;;;;;;2.63;1.97;;;24.90;49.40;;;;;;4992536;28;20216;-67
2023/07/04 02:15:16;;;;;;;4.00;2.20;;;24.90;49.40;;;;;;4992580;28;20777;-67
2023/07/04 02:17:42;;;;;;;2.63;2.10;;;24.90;49.40;;;;;;4992735;28;20193;-66
2023/07/04 02:20:08;;;;;;;2.53;2.17;;;24.90;49.40;;;;;;4992745;28;20588;-67
2023/07/04 02:22:34;;;;;;;2.60;2.10;;;24.90;49.40;;;;;;4992624;28;20500;-66
2023/07/04 02:25:00;;;;;;;2.73;2.10;;;24.90;49.50;;;;;;4992403;28;20975;-67
2023/07/04 02:27:25;;;;;;;3.23;1.93;;;24.90;49.50;;;;;;4992270;28;20211;-66
2023/07/04 02:29:51;;;;;;;2.77;2.03;;;24.90;49.60;;;;;;4992346;28;20253;-66
2023/07/04 02:32:16;;;;;;;2.97;2.13;;;24.90;49.60;;;;;;4992360;28;20177;-66
2023/07/04 02:34:42;;;;;;;2.03;1.83;;;24.90;49.60;;;;;;4992365;28;20169;-67
2023/07/04 02:37:08;;;;;;;4.63;2.23;;;24.80;49.50;;;;;;4992170;28;20201;-68
2023/07/04 02:39:34;;;;;;;2.83;1.93;;;24.80;49.50;;;;;;4990980;28;20184;-67
2023/07/04 02:41:59;;;;;;;2.30;1.80;;;24.80;49.40;;;;;;4992261;28;20654;-68
2023/07/04 02:44:25;;;;;;;2.50;2.00;;;24.80;49.50;;;;;;4992223;28;20696;-67
2023/07/04 02:46:51;;;;;;;2.40;2.00;;;24.80;49.50;;;;;;4990796;28;20287;-66
2023/07/04 02:49:16;;;;;;;2.33;2.00;;;24.90;49.60;;;;;;4992166;28;20479;-67
2023/07/04 02:51:42;;;;;;;2.43;1.90;;;24.80;49.60;;;;;;4992100;28;20650;-66
2023/07/04 02:54:07;;;;;;;2.60;2.17;;;24.80;49.60;;;;;;4992114;28;20173;-67
2023/07/04 02:56:34;;;;;;;2.80;1.77;;;24.80;49.60;;;;;;4992307;28;20213;-66
2023/07/04 02:58:59;;;;;;;2.40;1.93;;;24.80;49.60;;;;;;4992088;28;20181;-67
2023/07/04 03:01:25;;;;;;;2.83;2.30;;;24.80;49.60;;;;;;4992020;28;20459;-67
2023/07/04 03:03:50;;;;;;;2.20;2.00;;;24.80;49.60;;;;;;4991999;28;20181;-67
2023/07/04 03:06:16;;;;;;;2.37;2.10;;;24.80;49.60;;;;;;4991910;28;20197;-66
2023/07/04 03:08:44;;;;;;;2.37;1.80;;;24.80;49.60;;;;;;4994078;28;20169;-66
2023/07/04 03:11:10;;;;;;;2.57;1.90;;;24.80;49.60;;;;;;4995851;28;20666;-67
2023/07/04 03:13:36;;;;;;;2.40;1.83;;;24.80;49.60;;;;;;4995515;28;20889;-67
2023/07/04 03:16:02;;;;;;;2.73;1.73;;;24.80;49.60;;;;;;4995446;28;20415;-67
2023/07/04 03:18:27;;;;;;;2.97;1.93;;;24.80;49.60;;;;;;4995298;28;20712;-67
2023/07/04 03:20:53;;;;;;;2.93;2.33;;;24.80;49.60;;;;;;4995341;28;20189;-66
2023/07/04 03:23:19;;;;;;;2.90;2.50;;;24.80;49.50;;;;;;4995585;28;20558;-67
2023/07/04 03:25:44;;;;;;;3.27;2.20;;;24.80;49.50;;;;;;4995187;28;20197;-67
2023/07/04 03:28:10;;;;;;;2.40;2.20;;;24.80;49.50;;;;;;4995153;28;20232;-66
2023/07/04 03:30:35;;;;;;;2.13;1.80;;;24.80;49.60;;;;;;4995125;28;20180;-67
2023/07/04 03:33:01;;;;;;;5.37;2.60;;;24.80;49.60;;;;;;4995117;28;20211;-67
2023/07/04 03:35:27;;;;;;;2.43;1.90;;;24.80;49.50;;;;;;4993850;28;20179;-67
2023/07/04 03:37:52;;;;;;;3.63;2.60;;;24.80;49.50;;;;;;4994976;28;20239;-66
2023/07/04 03:40:18;;;;;;;3.10;2.30;;;24.80;49.60;;;;;;4994982;28;20244;-66
2023/07/04 03:42:44;;;;;;;2.47;2.27;;;24.80;49.60;;;;;;4994934;28;20176;-66
2023/07/04 03:45:10;;;;;;;2.50;1.80;;;24.80;49.60;;;;;;4994886;28;20181;-67
2023/07/04 03:47:36;;;;;;;2.50;1.97;;;24.80;49.60;;;;;;4994797;28;21047;-67
2023/07/04 03:50:02;;;;;;;2.57;1.77;;;24.80;49.60;;;;;;4994813;28;20444;-67
2023/07/04 03:52:28;;;;;;;2.30;2.10;;;24.80;49.60;;;;;;4994792;28;20793;-66
2023/07/04 03:54:54;;;;;;;2.37;2.17;;;24.80;49.60;;;;;;4994702;28;20424;-66
2023/07/04 03:57:20;;;;;;;3.30;2.17;;;24.80;49.60;;;;;;4994904;28;20201;-67
2023/07/04 03:59:45;;;;;;;2.37;2.00;;;24.80;49.60;;;;;;4993390;28;20264;-67
2023/07/04 04:02:11;;;;;;;2.90;2.27;;;24.80;49.70;;;;;;4993272;28;20677;-67
2023/07/04 04:04:39;;;;;;;3.33;2.10;;;24.80;49.70;;;;;;4994531;28;20681;-67
2023/07/04 04:07:09;;;;;;;3.03;2.13;;;24.80;49.70;;;;;;4993242;28;20205;-65
2023/07/04 04:09:35;;;;;;;2.50;2.30;;;24.80;49.70;;;;;;4994560;28;20483;-67
2023/07/04 04:12:02;;;;;;;2.97;2.20;;;24.80;49.80;;;;;;4994481;28;20416;-66
2023/07/04 04:14:29;;;;;;;3.27;2.00;;;24.80;49.70;;;;;;4994352;28;20484;-67
2023/07/04 04:16:55;;;;;;;3.00;2.10;;;24.80;49.80;;;;;;4994249;28;20937;-67
2023/07/04 04:19:21;;;;;;;4.60;1.93;;;24.80;49.80;;;;;;4993966;28;20909;-66
2023/07/04 04:21:47;;;;;;;2.90;2.30;;;24.80;49.80;;;;;;4994124;28;20412;-66
2023/07/04 04:24:12;;;;;;;2.20;2.00;;;24.80;49.80;;;;;;4994200;28;20684;-65
2023/07/04 04:26:39;;;;;;;2.90;1.87;;;24.80;49.80;;;;;;4993929;28;20200;-66
2023/07/04 04:29:06;;;;;;;2.60;2.10;;;24.80;49.90;;;;;;4992467;28;20240;-66
2023/07/04 04:31:37;;;;;;;2.53;1.80;;;24.80;49.80;;;;;;4994104;28;20443;-67
2023/07/04 04:34:08;;;;;;;3.23;2.13;;;24.80;49.90;;;;;;4994248;28;20415;-66
2023/07/04 04:36:34;;;;;;;4.03;1.63;;;24.80;49.90;;;;;;4993913;28;20523;-65
2023/07/04 04:39:01;;;;;;;2.03;1.77;;;24.80;49.90;;;;;;4993893;28;20503;-66
2023/07/04 04:41:28;;;;;;;5.20;2.70;;;24.80;49.90;;;;;;4993622;28;20173;-66
2023/07/04 04:43:55;;;;;;;2.33;1.70;;;24.80;49.90;;;;;;4993769;28;20408;-66
2023/07/04 04:46:21;;;;;;;4.53;2.20;;;24.80;49.80;;;;;;4993613;28;20487;-66
2023/07/04 04:48:47;;;;;;;3.13;2.20;;;24.80;49.80;;;;;;4993767;28;20404;-65
2023/07/04 04:51:13;;;;;;;3.20;2.30;;;24.80;49.80;;;;;;4993769;28;20935;-66
2023/07/04 04:53:41;;;;;;;2.43;2.00;;;24.80;49.70;;;;;;4993532;28;20932;-67
2023/07/04 04:56:08;;;;;;;4.53;2.30;;;24.80;49.70;;;;;;4993483;28;20503;-66
2023/07/04 04:58:35;;;;;;;3.80;2.23;;;24.80;49.60;;;;;;4993486;28;20828;-66
2023/07/04 05:01:14;;;;;;;3.40;2.30;;;24.80;49.60;;;;;;4993273;28;20440;-67
2023/07/04 05:03:41;;;;;;;2.80;2.10;;;24.90;49.60;;;;;;4993070;28;20419;-67
2023/07/04 05:06:07;;;;;;;2.07;1.73;;;24.80;49.50;;;;;;4993505;28;20456;-67
2023/07/04 05:08:33;;;;;;;2.83;2.47;;;24.80;49.40;;;;;;4993619;28;20499;-66
2023/07/04 05:11:02;;;;;;;5.13;2.33;;;24.80;49.40;;;;;;4992095;28;20177;-67
2023/07/04 05:13:28;;;;;;;2.93;2.00;;;24.80;49.40;;;;;;4993300;28;20176;-67
2023/07/04 05:16:05;;;;;;;4.90;2.80;;;24.80;49.30;;;;;;4993171;28;20409;-66
2023/07/04 05:18:31;;;;;;;3.47;2.27;;;24.90;49.40;;;;;;4991917;28;20540;-67
2023/07/04 05:21:08;;;;;;;5.97;2.37;;;24.80;49.30;;;;;;4993167;28;20412;-67
2023/07/04 05:23:36;;;;;;;3.83;2.10;;;24.90;49.40;;;;;;4993072;28;20919;-66
2023/07/04 05:26:08;;;;;;;5.03;2.43;;;24.90;49.30;;;;;;4992916;28;20451;-66
2023/07/04 05:28:34;;;;;;;2.80;2.07;;;24.90;49.30;;;;;;4993125;28;20507;-65
2023/07/04 05:31:02;;;;;;;3.23;2.30;;;24.90;49.30;;;;;;4992357;28;20412;-67
2023/07/04 05:33:28;;;;;;;4.23;2.30;;;24.90;49.30;;;;;;4992922;28;20400;-66
2023/07/04 05:36:06;;;;;;;2.43;2.20;;;24.90;49.30;;;;;;4992940;28;20411;-67
2023/07/04 05:38:32;;;;;;;2.33;2.03;;;24.90;49.30;;;;;;4992870;28;20447;-66
2023/07/04 05:40:57;;;;;;;4.30;2.37;;;24.90;49.20;;;;;;4992841;28;20491;-65
2023/07/04 05:43:23;;;;;;;2.43;1.90;;;24.90;49.30;;;;;;4992803;28;20595;-66
2023/07/04 05:45:50;;;;;;;3.10;2.00;;;24.90;49.20;;;;;;4992696;28;20211;-66
2023/07/04 05:48:16;;;;;;;2.40;2.00;;;24.90;49.20;;;;;;4992624;28;20193;-66
2023/07/04 05:50:59;;;;;;;3.80;2.40;;;24.90;49.20;;;;;;4992731;28;20808;-66
2023/07/04 05:53:30;;;;;;;2.40;1.60;;;25.00;49.30;;;;;;4992709;28;20445;-66
2023/07/04 05:56:14;;;;;;;2.33;2.13;;;24.90;49.20;;;;;;4991370;28;20420;-66
2023/07/04 05:58:45;;;;;;;3.50;2.23;;;25.00;49.30;;;;;;4992352;28;20420;-65
2023/07/04 06:01:12;;;;;;;2.07;1.87;;;24.90;49.20;;;;;;4992488;28;20451;-67
2023/07/04 06:03:39;;;;;;;3.50;2.20;;;25.00;49.40;;;;;;4992866;28;20412;-66
2023/07/04 06:06:06;;;;;;;4.10;2.13;;;25.00;49.20;;;;;;4992449;28;20962;-67
2023/07/04 06:08:33;;;;;;;2.80;2.10;;;25.00;49.40;;;;;;4992559;28;20492;-66
2023/07/04 06:11:04;;;;;;;3.63;1.87;;;25.00;49.40;;;;;;4992523;28;20412;-66
2023/07/04 06:13:30;;;;;;;3.13;1.80;;;25.00;49.30;;;;;;4992473;28;20419;-64
2023/07/04 06:15:58;;;;;;;3.33;1.93;;;25.00;49.30;;;;;;4992463;28;20412;-65
2023/07/04 06:18:23;;;;;;;2.87;2.10;;;25.00;49.30;;;;;;4991221;28;20204;-66
2023/07/04 06:20:49;;;;;;;3.10;1.90;;;25.00;49.40;;;;;;4992440;28;20419;-66
2023/07/04 06:23:15;;;;;;;2.27;2.00;;;25.00;49.40;;;;;;4992392;28;20173;-67
2023/07/04 06:25:40;;;;;;;5.13;1.90;;;25.00;49.40;;;;;;4992588;28;20231;-67
2023/07/04 06:28:06;;;;;;;3.03;2.33;;;25.00;49.40;;;;;;4991006;28;20232;-67
2023/07/04 06:30:34;;;;;;;2.60;2.07;;;25.00;49.40;;;;;;4992330;28;20232;-67
2023/07/04 06:33:03;;;;;;;4.30;2.30;;;25.00;49.50;;;;;;4991174;28;20670;-67
2023/07/04 06:35:30;;;;;;;3.17;2.17;;;25.00;49.50;;;;;;4992378;28;20409;-67
2023/07/04 06:37:55;;;;;;;2.33;2.00;;;25.00;49.60;;;;;;4990940;28;20440;-67
2023/07/04 06:40:21;;;;;;;2.60;1.90;;;25.10;49.60;;;;;;4992314;28;20858;-66
2023/07/04 06:42:47;;;;;;;2.37;1.97;;;25.10;49.60;;;;;;4994641;28;20403;-67
2023/07/04 06:45:12;;;;;;;2.03;1.80;;;25.10;49.60;;;;;;4994752;28;20173;-67
2023/07/04 06:47:38;;;;;;;2.90;2.10;;;25.10;49.60;;;;;;4995883;28;20201;-67
2023/07/04 06:50:05;;;;;;;3.30;2.30;;;25.10;49.60;;;;;;4995941;28;20168;-67
2023/07/04 06:52:32;;;;;;;2.40;1.90;;;25.10;49.70;;;;;;4995952;28;20542;-68
2023/07/04 06:54:57;;;;;;;4.00;1.80;;;25.10;49.70;;;;;;4994546;28;20996;-66
2023/07/04 06:57:23;;;;;;;1.93;1.70;;;25.10;49.70;;;;;;4995969;28;20531;-67
2023/07/04 06:59:52;;;;;;;3.00;1.80;;;25.10;49.70;;;;;;4995775;28;20653;-67
2023/07/04 07:02:18;;;;;;;2.40;1.80;;;25.10;49.70;;;;;;4995627;28;20231;-67
2023/07/04 07:04:43;;;;;;;3.63;2.57;;;25.10;49.70;;;;;;4995642;28;20451;-67
2023/07/04 07:07:10;;;;;;;2.97;1.80;;;25.10;49.70;;;;;;4995773;28;20217;-67
2023/07/04 07:09:40;;;;;;;3.20;2.47;;;25.10;49.70;;;;;;4995866;28;20231;-67
2023/07/04 07:12:08;;;;;;;3.10;1.97;;;25.10;49.70;;;;;;4996157;28;20943;-67
2023/07/04 07:14:34;;;;;;;3.10;2.13;;;25.10;49.70;;;;;;4995399;28;20456;-67
2023/07/04 07:16:59;;;;;;;2.97;1.70;;;25.10;49.70;;;;;;4995371;28;20468;-68
2023/07/04 07:19:26;;;;;;;2.77;2.00;;;25.10;49.70;;;;;;4995375;28;20184;-66
2023/07/04 07:21:51;;;;;;;3.77;2.57;;;25.20;49.80;;;;;;4995410;28;20181;-66
2023/07/04 07:24:17;;;;;;;2.10;1.90;;;25.20;49.80;;;;;;4994004;28;20412;-66
2023/07/04 07:26:43;;;;;;;3.23;2.20;;;25.20;49.80;;;;;;4995166;28;20292;-67
2023/07/04 07:29:08;;;;;;;3.40;2.07;;;25.20;49.80;;;;;;4995233;28;20177;-68
2023/07/04 07:31:35;;;;;;;2.00;1.80;;;25.20;49.80;;;;;;4993903;28;20692;-66
2023/07/04 07:34:02;;;;;;;2.90;1.83;;;25.20;49.80;;;;;;4995216;28;20172;-67
2023/07/04 07:36:39;;;;;;;2.80;2.20;;;25.20;49.80;;;;;;4993744;28;20438;-67
2023/07/04 07:39:07;;;;;;;4.47;2.30;;;25.20;49.80;;;;;;4995378;28;20774;-66
2023/07/04 07:41:36;;;;;;;2.27;1.87;;;25.20;49.80;;;;;;4994926;28;20975;-67
2023/07/04 07:44:03;;;;;;;2.30;1.90;;;25.20;49.80;;;;;;4994937;28;20420;-67
2023/07/04 07:46:29;;;;;;;2.60;2.40;;;25.20;49.80;;;;;;4994757;28;20464;-67
2023/07/04 07:48:55;;;;;;;2.30;1.67;;;25.20;49.80;;;;;;4994887;28;20412;-67
2023/07/04 07:51:21;;;;;;;6.13;1.90;;;25.20;49.80;;;;;;4995131;28;20173;-67
2023/07/04 07:53:48;;;;;;;2.83;2.30;;;25.30;49.80;;;;;;4994204;28;20409;-67
2023/07/04 07:56:16;;;;;;;3.20;1.93;;;25.30;49.80;;;;;;4994894;28;20555;-68
2023/07/04 07:58:42;;;;;;;2.10;1.80;;;25.30;49.80;;;;;;4994656;28;20921;-68
2023/07/04 08:01:17;;;;;;;2.43;1.67;;;25.30;49.80;;;;;;4994675;28;20483;-67
2023/07/04 08:03:46;;;;;;;5.03;2.00;;;25.30;49.80;;;;;;4993346;28;20424;-68
2023/07/04 08:06:33;;;;;;;3.47;1.80;;;25.30;49.80;;;;;;4994709;28;20451;-68
2023/07/04 08:09:01;;;;;;;2.83;2.10;;;25.30;49.80;;;;;;4994501;28;20913;-67
2023/07/04 08:11:28;;;;;;;2.17;1.70;;;25.30;49.80;;;;;;4994724;28;20455;-68
2023/07/04 08:13:54;;;;;;;2.60;2.40;;;25.30;49.80;;;;;;4994416;28;20901;-68
2023/07/04 08:16:23;;;;;;;3.10;2.50;;;25.30;49.80;;;;;;4994300;28;20428;-66
2023/07/04 08:18:49;;;;;;;5.33;2.20;;;25.30;49.80;;;;;;4993023;28;20420;-67
2023/07/04 08:21:15;;;;;;;2.43;2.03;;;25.30;49.80;;;;;;4994224;28;20890;-67
2023/07/04 08:23:41;;;;;;;2.40;2.00;;;25.30;49.80;;;;;;4994297;28;20665;-67
2023/07/04 08:26:07;;;;;;;2.67;2.13;;;25.30;49.80;;;;;;4994026;28;20495;-66
2023/07/04 08:28:32;;;;;;;3.00;2.10;;;25.30;49.80;;;;;;4994027;28;20212;-67
2023/07/04 08:31:08;;;;;;;3.10;2.20;;;25.30;49.80;;;;;;4994318;28;20366;-68
2023/07/04 08:33:34;;;;;;;3.30;2.40;;;25.30;49.80;;;;;;4994305;28;20177;-67
2023/07/04 08:36:03;;;;;;;2.73;2.27;;;25.30;49.80;;;;;;4993968;28;20787;-68
2023/07/04 08:38:30;;;;;;;3.27;1.90;;;25.30;49.80;;;;;;4993899;28;20193;-68
2023/07/04 08:40:56;;;;;;;2.73;2.30;;;25.30;49.80;;;;;;4994175;28;20975;-68
2023/07/04 08:43:34;;;;;;;3.00;2.00;;;25.30;49.80;;;;;;4993773;28;20416;-67
2023/07/04 08:46:04;;;;;;;3.00;2.13;;;25.30;49.80;;;;;;4993815;28;20448;-69
2023/07/04 08:48:30;;;;;;;1.83;1.73;;;25.30;49.70;;;;;;4993727;28;20451;-67
2023/07/04 08:51:00;;;;;;;2.37;1.80;;;25.30;49.70;;;;;;4992397;28;20416;-66
2023/07/04 08:53:26;;;;;;;6.13;2.37;;;25.30;49.70;;;;;;4993652;28;20507;-68
2023/07/04 08:56:12;;;;;;;6.00;2.00;;;25.30;49.70;;;;;;4993547;28;20896;-66
2023/07/04 08:59:10;;;;;;;2.80;1.97;;;25.40;49.80;;;;;;4993641;28;20971;-65
2023/07/04 09:01:53;;;;;;;3.70;2.00;;;25.40;49.80;;;;;;4987753;28;20444;-67
2023/07/04 09:04:36;;;;;;;2.40;2.10;;;25.30;49.80;;;;;;4993421;28;20400;-68
2023/07/04 09:07:24;;;;;;;2.50;1.97;;;25.40;49.80;;;;;;4992487;28;20474;-67
2023/07/04 09:09:55;;;;;;;3.00;2.30;;;25.40;49.80;;;;;;4993486;28;20893;-66
2023/07/04 09:12:21;;;;;;;2.93;2.00;;;25.30;49.70;;;;;;4993355;28;20834;-65
2023/07/04 09:15:00;;;;;;;3.67;2.20;;;25.40;49.80;;;;;;4993291;28;20500;-66
2023/07/04 09:17:33;;;;;;;3.20;2.30;;;25.40;49.80;;;;;;4993265;28;20200;-67
2023/07/04 09:20:00;;;;;;;3.37;2.03;;;25.30;49.70;;;;;;4993250;28;20404;-66
2023/07/04 09:22:27;;;;;;;2.27;2.00;;;25.40;49.80;;;;;;4993167;28;20503;-66
2023/07/04 09:24:53;;;;;;;2.77;2.47;;;25.40;49.80;;;;;;4993151;28;20995;-67
2023/07/04 09:27:19;;;;;;;2.40;2.17;;;25.30;49.70;;;;;;4992890;28;20460;-66
2023/07/04 09:29:45;;;;;;;3.87;2.40;;;25.40;49.70;;;;;;4993055;28;20185;-65
2023/07/04 09:32:12;;;;;;;2.33;1.77;;;25.40;49.70;;;;;;4993268;28;20412;-67
2023/07/04 09:34:43;;;;;;;4.80;2.17;;;25.40;49.70;;;;;;4991663;28;20578;-66
2023/07/04 09:37:14;;;;;;;2.53;2.20;;;25.40;49.70;;;;;;4992877;28;20853;-67
2023/07/04 09:39:50;;;;;;;2.60;2.03;;;25.40;49.70;;;;;;4992968;28;20392;-66
2023/07/04 09:42:21;;;;;;;2.80;2.33;;;25.40;49.70;;;;;;4993153;28;20434;-66
2023/07/04 09:44:47;;;;;;;2.47;2.20;;;25.40;49.70;;;;;;4992835;28;20455;-67
2023/07/04 09:47:25;;;;;;;3.23;2.53;;;25.40;49.70;;;;;;4992606;28;20483;-67
2023/07/04 09:50:34;;;;;;;2.93;2.10;;;25.40;49.70;;;;;;4992800;28;20169;-68
2023/07/04 09:53:18;;;;;;;2.27;1.80;;;25.40;49.70;;;;;;4913632;29;20420;-68
2023/07/04 09:55:57;;;;;;;3.53;2.30;;;25.40;49.70;;;;;;4990482;28;20426;-66
2023/07/04 09:58:25;;;;;;;2.60;2.00;;;25.40;49.70;;;;;;4992625;28;20949;-67
2023/07/04 10:01:10;;;;;;;3.07;2.23;;;25.40;49.70;;;;;;4992906;28;20454;-68
2023/07/04 10:03:40;;;;;;;2.10;1.90;;;25.40;49.70;;;;;;4992620;28;20396;-68
2023/07/04 10:06:08;;;;;;;4.60;2.30;;;25.40;49.70;;;;;;4992430;28;20547;-67
2023/07/04 10:08:49;;;;;;;2.80;2.30;;;25.40;49.70;;;;;;4992574;28;20827;-67
2023/07/04 10:11:29;;;;;;;2.90;2.40;;;25.40;49.60;;;;;;4992561;28;20411;-67
2023/07/04 10:14:06;;;;;;;3.00;2.33;;;25.40;49.60;;;;;;4992542;28;20393;-67
2023/07/04 10:16:33;;;;;;;3.43;2.50;;;25.40;49.60;;;;;;4993240;28;20470;-66
2023/07/04 10:19:08;;;;;;;2.93;2.23;;;25.40;49.70;;;;;;4996491;28;20408;-66
2023/07/04 10:21:40;;;;;;;3.27;2.07;;;25.40;49.60;;;;;;4996522;28;20420;-67
2023/07/04 10:24:07;;;;;;;2.90;2.33;;;25.40;49.60;;;;;;4996487;28;20388;-67
2023/07/04 10:26:34;;;;;;;2.73;2.00;;;25.40;49.60;;;;;;4996326;28;20468;-67
2023/07/04 10:29:02;;;;;;;2.40;2.20;;;25.40;49.60;;;;;;4996413;28;20422;-67
2023/07/04 10:31:27;;;;;;;4.23;2.83;;;25.40;49.60;;;;;;4996628;28;20413;-68
2023/07/04 10:34:01;;;;;;;2.73;2.43;;;25.50;49.70;;;;;;4996325;28;20821;-68
2023/07/04 10:36:32;;;;;;;4.33;2.97;;;25.50;49.60;;;;;;4996160;28;20197;-67
2023/07/04 10:39:06;;;;;;;3.37;3.07;;;25.50;49.60;;;;;;4996221;28;20487;-66
2023/07/04 10:41:39;;;;;;;2.40;2.20;;;25.40;49.50;;;;;;4996241;28;20406;-67
2023/07/04 10:44:22;;;;;;;3.03;2.50;;;25.50;49.60;;;;;;4995076;28;20403;-67
2023/07/04 10:46:52;;;;;;;2.53;2.33;;;25.50;49.50;;;;;;4995952;28;20467;-68
2023/07/04 10:49:21;;;;;;;3.30;2.70;;;25.40;49.50;;;;;;4996040;28;20880;-67
2023/07/04 10:51:51;;;;;;;2.83;2.47;;;25.40;49.50;;;;;;4996036;28;20416;-67
2023/07/04 10:54:18;;;;;;;5.27;2.70;;;25.40;49.40;;;;;;4995887;28;20408;-68
2023/07/04 10:56:49;;;;;;;2.97;2.67;;;25.40;49.50;;;;;;4995765;28;20432;-66
2023/07/04 10:59:27;;;;;;;3.73;2.43;;;25.50;49.50;;;;;;4995873;28;20399;-68
2023/07/04 11:02:00;;;;;;;2.53;2.07;;;25.40;49.40;;;;;;4995780;28;20487;-68
2023/07/04 11:04:32;;;;;;;3.60;2.33;;;25.40;49.40;;;;;;4996002;28;20415;-68
2023/07/04 11:07:00;;;;;;;3.63;2.90;;;25.40;49.40;;;;;;4995551;28;20459;-68
2023/07/04 11:09:31;;;;;;;3.30;2.87;;;25.40;49.50;;;;;;4995657;28;20852;-67
2023/07/04 11:12:05;;;;;;;4.67;3.07;;;25.40;49.40;;;;;;4995523;28;20400;-67
2023/07/04 11:14:36;;;;;;;6.30;3.50;;;25.40;49.40;;;;;;4995512;28;20392;-66
2023/07/04 11:17:05;;;;;;;5.97;4.83;;;25.40;49.40;;;;;;4995423;28;20470;-66
2023/07/04 11:19:34;;;;;;;9.10;7.77;;;25.40;49.40;;;;;;4995493;28;20412;-66
2023/07/04 11:22:08;;;;;;;11.10;8.40;;;25.40;49.40;;;;;;4995398;28;20470;-65
2023/07/04 11:24:45;;;;;;;11.83;8.23;;;25.40;49.40;;;;;;4995341;28;20764;-66
2023/07/04 11:27:19;;;;;;;11.50;8.93;;;25.40;49.40;;;;;;4995215;28;20466;-66
2023/07/04 11:30:00;;;;;;;10.73;8.97;;;25.40;49.40;;;;;;4994263;28;20931;-66
2023/07/04 11:32:53;;;;;;;10.60;9.50;;;25.40;49.30;;;;;;4995169;28;20451;-67
2023/07/04 11:35:23;;;;;;;10.57;9.43;;;25.40;49.20;;;;;;4995145;28;20424;-66
2023/07/04 11:37:54;;;;;;;14.63;8.63;;;25.40;49.20;;;;;;4995292;28;20436;-67
2023/07/04 11:40:40;;;;;;;10.57;8.90;;;25.40;49.30;;;;;;4995078;28;20587;-67
2023/07/04 11:43:19;;;;;;;9.50;8.43;;;25.40;49.10;;;;;;4995304;28;20421;-67
2023/07/04 11:45:45;;;;;;;10.30;9.20;;;25.40;49.20;;;;;;4994885;28;20392;-66
2023/07/04 11:48:15;;;;;;;10.07;9.07;;;25.40;49.10;;;;;;4994852;28;20792;-66
2023/07/04 11:50:44;;;;;;;10.03;8.90;;;25.40;49.10;;;;;;4994924;28;20181;-67
2023/07/04 11:53:45;;;;;;;15.70;8.87;;;25.40;49.00;;;;;;4994751;28;20409;-65
2023/07/04 11:56:17;;;;;;;9.10;8.20;;;25.40;49.00;;;;;;4994993;28;20774;-68
2023/07/04 11:58:45;;;;;;;10.83;8.57;;;25.40;49.00;;;;;;4994665;28;20408;-67
2023/07/04 12:01:12;;;;;;;9.83;8.80;;;25.40;49.00;;;;;;4994566;28;20803;-67
2023/07/04 12:03:47;;;;;;;9.77;8.47;;;25.30;49.10;;;;;;4994615;28;20451;-66
2023/07/04 12:06:35;;;;;;;9.10;8.00;;;25.40;49.10;;;;;;4994468;28;20539;-67
2023/07/04 12:09:02;;;;;;;9.80;8.50;;;25.40;49.10;;;;;;4994832;28;20928;-67
2023/07/04 12:11:42;;;;;;;9.37;7.57;;;25.40;49.10;;;;;;4994487;28;20439;-67
2023/07/04 12:14:11;;;;;;;11.80;9.30;;;25.40;49.00;;;;;;4994691;28;20388;-67
2023/07/04 12:16:37;;;;;;;9.63;8.20;;;25.40;49.00;;;;;;4994657;28;20455;-67
2023/07/04 12:19:05;;;;;;;8.70;7.90;;;25.30;49.00;;;;;;4994388;28;20408;-66
2023/07/04 12:21:33;;;;;;;11.60;9.07;;;25.30;48.90;;;;;;4994308;28;20219;-67
2023/07/04 12:24:05;;;;;;;10.43;8.40;;;25.40;49.00;;;;;;4992919;28;20420;-66
2023/07/04 12:26:32;;;;;;;10.10;8.80;;;25.40;48.90;;;;;;4994359;28;20885;-66
2023/07/04 12:29:02;;;;;;;12.20;8.83;;;25.40;48.90;;;;;;4994417;28;20427;-66
2023/07/04 12:31:28;;;;;;;8.77;7.77;;;25.40;48.90;;;;;;4993183;28;20436;-67
2023/07/04 12:33:53;;;;;;;9.27;8.37;;;25.30;48.80;;;;;;4994051;28;20960;-66
2023/07/04 12:36:22;;;;;;;9.70;8.33;;;25.30;48.80;;;;;;4993976;28;20455;-66
2023/07/04 12:38:55;;;;;;;9.80;8.00;;;25.40;48.80;;;;;;4994005;28;20180;-66
2023/07/04 12:41:23;;;;;;;8.67;7.87;;;25.40;48.80;;;;;;4993845;28;20408;-67
2023/07/04 12:43:55;;;;;;;8.73;7.77;;;25.30;48.70;;;;;;4993888;28;20411;-66
2023/07/04 12:46:24;;;;;;;9.30;8.40;;;25.40;48.80;;;;;;4993687;28;20451;-66
2023/07/04 12:48:50;;;;;;;8.80;8.00;;;25.40;48.80;;;;;;4993756;28;20404;-68
2023/07/04 12:51:19;;;;;;;12.53;9.37;;;25.40;48.70;;;;;;4993975;28;20830;-67
2023/07/04 12:53:45;;;;;;;9.97;8.60;;;25.40;48.70;;;;;;4993642;28;20414;-67
2023/07/04 12:56:12;;;;;;;7.90;7.10;;;25.40;48.70;;;;;;4993424;28;20431;-66